createdAt,value
2022-09-16T00:02:05.274Z,0.60
2022-09-16T00:05:12.746Z,0.70
2022-09-16T00:08:19.194Z,0.70
2022-09-16T00:11:25.683Z,0.60
2022-09-16T00:14:29.763Z,0.80
2022-09-16T00:17:34.779Z,0.80
2022-09-16T00:20:38.957Z,0.70
2022-09-16T00:23:43.374Z,0.80
2022-09-16T00:26:48.896Z,0.70
2022-09-16T00:29:53.756Z,0.75
2022-09-16T00:32:57.816Z,0.77
2022-09-16T00:36:10.973Z,0.80
2022-09-16T00:39:15.256Z,0.80
2022-09-16T00:42:21.956Z,0.80
2022-09-16T00:45:31.460Z,0.60
2022-09-16T00:48:36.200Z,0.80
2022-09-16T00:51:41.299Z,0.80
2022-09-16T00:54:45.827Z,0.75
2022-09-16T00:57:52.924Z,0.82
2022-09-16T01:00:57.700Z,0.70
2022-09-16T01:04:07.110Z,0.50
2022-09-16T01:07:12.755Z,0.80
2022-09-16T01:10:20.497Z,0.82
2022-09-16T01:13:26.174Z,1.00
2022-09-16T01:16:33.608Z,0.90
2022-09-16T01:20:24.096Z,1.08
2022-09-16T01:24:33.954Z,0.80
2022-09-16T01:28:13.167Z,0.70
2022-09-16T01:31:20.714Z,0.70
2022-09-16T01:34:34.217Z,0.70
2022-09-16T01:37:46.595Z,0.82
2022-09-16T01:40:59.169Z,0.75
2022-09-16T01:44:10.437Z,0.60
2022-09-16T01:47:22.032Z,0.70
2022-09-16T01:50:28.883Z,0.82
2022-09-16T01:53:37.464Z,0.80
2022-09-16T01:56:45.935Z,0.70
2022-09-16T01:59:54.049Z,0.80
2022-09-16T02:03:03.358Z,1.02
2022-09-16T02:06:14.826Z,0.80
2022-09-16T02:09:23.184Z,0.77
2022-09-16T02:12:31.406Z,0.90
2022-09-16T02:15:36.010Z,0.65
2022-09-16T02:18:43.803Z,0.80
2022-09-16T02:21:48.819Z,0.90
2022-09-16T02:24:53.970Z,0.80
2022-09-16T02:27:58.915Z,0.80
2022-09-16T02:31:06.654Z,0.75
2022-09-16T02:34:16.589Z,0.90
2022-09-16T02:37:25.206Z,0.80
2022-09-16T02:40:34.449Z,1.05
2022-09-16T02:43:38.850Z,0.80
2022-09-16T02:46:50.172Z,0.90
2022-09-16T02:50:00.980Z,1.00
2022-09-16T02:53:13.070Z,0.98
2022-09-16T02:56:24.333Z,0.93
2022-09-16T02:59:28.387Z,0.82
2022-09-16T03:02:34.460Z,0.93
2022-09-16T03:06:08.258Z,0.95
2022-09-16T03:09:14.391Z,0.80
2022-09-16T03:12:46.648Z,1.05
2022-09-16T03:16:00.505Z,0.98
2022-09-16T03:19:13.997Z,1.10
2022-09-16T03:22:32.006Z,1.20
2022-09-16T03:25:46.335Z,1.30
2022-09-16T03:29:04.551Z,1.10
2022-09-16T03:32:17.625Z,1.20
2022-09-16T03:35:26.638Z,1.15
2022-09-16T03:38:32.871Z,1.00
2022-09-16T03:41:37.454Z,1.20
2022-09-16T03:44:42.872Z,1.00
2022-09-16T03:47:49.623Z,1.00
2022-09-16T03:50:53.670Z,1.30
2022-09-16T03:53:59.235Z,1.30
2022-09-16T03:57:03.446Z,1.40
2022-09-16T04:00:10.742Z,1.83
2022-09-16T04:03:19.207Z,1.92
2022-09-16T04:06:24.014Z,2.08
2022-09-16T04:09:30.089Z,1.80
2022-09-16T04:12:34.514Z,2.00
2022-09-16T04:15:39.614Z,2.05
2022-09-16T04:18:43.990Z,1.80
2022-09-16T04:21:48.176Z,2.22
2022-09-16T04:24:53.620Z,2.25
2022-09-16T04:27:57.627Z,2.00
2022-09-16T04:31:03.332Z,1.85
2022-09-16T04:34:09.207Z,2.10
2022-09-16T04:37:13.708Z,2.08
2022-09-16T04:40:19.753Z,2.00
2022-09-16T04:43:24.110Z,2.00
2022-09-16T04:46:30.337Z,1.90
2022-09-16T04:49:34.600Z,2.17
2022-09-16T04:52:38.722Z,2.42
2022-09-16T04:55:44.519Z,2.20
2022-09-16T04:58:50.334Z,2.40
2022-09-16T05:01:54.447Z,2.45
2022-09-16T05:04:58.463Z,2.53
2022-09-16T05:08:03.154Z,2.30
2022-09-16T05:11:11.113Z,2.45
2022-09-16T05:14:17.473Z,2.50
2022-09-16T05:17:46.607Z,2.42
2022-09-16T05:20:45.859Z,2.30
2022-09-16T05:23:50.936Z,2.55
2022-09-16T05:26:56.522Z,2.58
2022-09-16T05:30:01.378Z,2.50
2022-09-16T05:33:05.898Z,2.40
2022-09-16T05:36:13.589Z,2.55
2022-09-16T05:39:23.367Z,2.60
2022-09-16T05:42:30.326Z,2.40
2022-09-16T05:45:34.697Z,2.25
2022-09-16T05:48:38.821Z,2.47
2022-09-16T05:51:43.000Z,2.53
2022-09-16T05:54:47.323Z,2.30
2022-09-16T05:57:52.911Z,2.30
2022-09-16T06:01:00.541Z,2.20
2022-09-16T06:04:07.442Z,2.30
2022-09-16T06:07:11.737Z,2.28
2022-09-16T06:10:16.453Z,1.90
2022-09-16T06:13:22.306Z,1.90
2022-09-16T06:16:28.118Z,1.55
2022-09-16T06:19:32.132Z,1.70
2022-09-16T06:22:36.678Z,1.80
2022-09-16T06:25:41.339Z,1.70
2022-09-16T06:28:47.743Z,1.33
2022-09-16T06:31:51.745Z,1.60
2022-09-16T06:34:55.999Z,1.38
2022-09-16T06:38:00.247Z,1.60
2022-09-16T06:41:06.996Z,1.40
2022-09-16T06:44:13.754Z,1.50
2022-09-16T06:47:18.659Z,1.20
2022-09-16T06:50:22.783Z,2.13
2022-09-16T06:53:27.415Z,1.50
2022-09-16T06:56:31.912Z,1.33
2022-09-16T06:59:37.501Z,1.30
2022-09-16T07:02:42.074Z,1.38
2022-09-16T07:05:56.869Z,1.40
2022-09-16T07:09:00.919Z,1.25
2022-09-16T07:12:05.673Z,1.30
2022-09-16T07:15:12.354Z,1.30
2022-09-16T07:18:16.571Z,1.17
2022-09-16T07:21:23.080Z,1.20
2022-09-16T07:24:27.725Z,1.30
2022-09-16T07:27:32.341Z,1.15
2022-09-16T07:30:37.877Z,1.08
2022-09-16T07:33:44.330Z,2.80
2022-09-16T07:36:50.302Z,1.55
2022-09-16T07:39:54.436Z,1.40
2022-09-16T07:42:59.556Z,1.40
2022-09-16T07:46:05.314Z,1.20
2022-09-16T07:49:13.048Z,1.20
2022-09-16T07:52:17.533Z,1.52
2022-09-16T07:55:21.623Z,1.45
2022-09-16T07:58:25.713Z,1.30
2022-09-16T08:01:31.841Z,1.52
2022-09-16T08:04:38.647Z,1.23
2022-09-16T08:07:43.853Z,1.02
2022-09-16T08:10:55.901Z,1.10
2022-09-16T08:14:00.981Z,1.30
2022-09-16T08:17:07.523Z,1.90
2022-09-16T08:20:12.181Z,13.43
2022-09-16T08:23:16.449Z,8.88
2022-09-16T08:26:22.293Z,6.25
2022-09-16T08:29:27.297Z,3.38
2022-09-16T08:32:33.127Z,2.00
2022-09-16T08:35:37.450Z,1.73
2022-09-16T08:38:42.127Z,1.58
2022-09-16T08:42:32.435Z,1.60
2022-09-16T08:45:44.204Z,1.40
2022-09-16T08:48:57.619Z,1.10
2022-09-16T08:52:06.226Z,1.20
2022-09-16T08:55:16.051Z,1.25
2022-09-16T08:58:22.646Z,1.45
2022-09-16T09:01:32.657Z,1.20
2022-09-16T09:04:38.392Z,1.15
2022-09-16T09:07:55.387Z,3.22
2022-09-16T09:11:05.043Z,1.70
2022-09-16T09:14:31.239Z,1.10
2022-09-16T09:17:49.167Z,1.58
2022-09-16T09:21:04.526Z,1.40
2022-09-16T09:24:29.787Z,1.65
2022-09-16T09:27:43.104Z,1.08
2022-09-16T09:31:00.434Z,1.20
2022-09-16T09:34:16.184Z,1.35
2022-09-16T09:37:42.116Z,1.05
2022-09-16T09:40:51.069Z,2.38
2022-09-16T09:43:59.258Z,1.50
2022-09-16T09:47:11.549Z,6.20
2022-09-16T09:50:20.376Z,1.30
2022-09-16T09:53:29.370Z,1.17
2022-09-16T09:56:36.836Z,1.20
2022-09-16T09:59:48.465Z,1.00
2022-09-16T10:02:52.958Z,2.00
2022-09-16T10:05:57.819Z,2.15
2022-09-16T10:09:03.377Z,1.15
2022-09-16T10:12:08.369Z,2.83
2022-09-16T10:15:24.114Z,1.80
2022-09-16T10:18:31.213Z,1.20
2022-09-16T10:21:46.118Z,1.17
2022-09-16T10:24:57.827Z,1.05
2022-09-16T10:28:06.036Z,1.27
2022-09-16T10:31:11.829Z,1.20
2022-09-16T10:34:22.295Z,1.30
2022-09-16T10:37:27.851Z,1.27
2022-09-16T10:40:33.606Z,1.65
2022-09-16T10:43:40.375Z,1.40
2022-09-16T10:46:53.338Z,1.27
2022-09-16T10:50:01.696Z,1.00
2022-09-16T10:53:27.347Z,1.10
2022-09-16T10:56:35.661Z,1.10
2022-09-16T10:59:39.742Z,1.48
2022-09-16T11:03:30.605Z,1.20
2022-09-16T11:06:49.442Z,1.20
2022-09-16T11:10:01.932Z,1.10
2022-09-16T11:13:27.215Z,1.25
2022-09-16T11:16:58.346Z,1.20
2022-09-16T11:20:37.691Z,3.05
2022-09-16T11:24:03.155Z,0.98
2022-09-16T11:27:16.018Z,1.02
2022-09-16T11:30:23.169Z,1.08
2022-09-16T11:33:34.960Z,0.93
2022-09-16T11:36:59.919Z,0.85
2022-09-16T11:40:23.762Z,0.75
2022-09-16T11:44:09.907Z,0.63
2022-09-16T11:47:41.069Z,1.10
2022-09-16T11:50:52.286Z,0.70
2022-09-16T11:54:14.999Z,0.70
2022-09-16T11:57:23.112Z,1.13
2022-09-16T12:00:27.669Z,0.90
2022-09-16T12:03:39.043Z,1.00
2022-09-16T12:06:55.568Z,1.10
2022-09-16T12:10:05.321Z,1.50
2022-09-16T12:13:15.711Z,1.40
2022-09-16T12:16:28.163Z,1.27
2022-09-16T12:19:39.062Z,1.20
2022-09-16T12:22:48.926Z,1.08
2022-09-16T12:26:05.698Z,1.10
2022-09-16T12:29:16.747Z,2.10
2022-09-16T12:32:35.217Z,2.00
2022-09-16T12:35:45.484Z,1.55
2022-09-16T12:38:49.678Z,1.20
2022-09-16T12:42:23.418Z,1.60
2022-09-16T12:46:21.565Z,1.42
2022-09-16T12:50:29.850Z,1.10
2022-09-16T12:54:09.798Z,1.40
2022-09-16T12:57:34.286Z,0.90
2022-09-16T13:00:42.847Z,0.93
2022-09-16T13:03:50.541Z,0.82
2022-09-16T13:06:58.495Z,0.80
2022-09-16T13:10:08.217Z,0.70
2022-09-16T13:13:21.536Z,0.90
2022-09-16T13:16:34.772Z,0.90
2022-09-16T13:19:46.707Z,0.80
2022-09-16T13:23:03.239Z,0.70
2022-09-16T13:26:10.306Z,0.90
2022-09-16T13:29:44.172Z,0.90
2022-09-16T13:33:04.848Z,0.80
2022-09-16T13:36:34.062Z,0.80
2022-09-16T13:39:38.523Z,0.70
2022-09-16T13:42:45.077Z,0.90
2022-09-16T13:45:49.314Z,0.77
2022-09-16T13:48:59.978Z,0.63
2022-09-16T13:52:12.524Z,0.70
2022-09-16T13:55:23.541Z,0.70
2022-09-16T13:58:32.583Z,1.35
2022-09-16T14:01:59.006Z,0.90
2022-09-16T14:05:20.078Z,0.80
2022-09-16T14:08:31.203Z,0.90
2022-09-16T14:11:40.141Z,0.70
2022-09-16T14:14:47.704Z,0.75
2022-09-16T14:17:58.327Z,0.90
2022-09-16T14:21:04.800Z,1.00
2022-09-16T14:24:18.597Z,0.90
2022-09-16T14:27:29.343Z,1.08
2022-09-16T14:30:34.762Z,1.40
2022-09-16T14:33:44.690Z,1.10
2022-09-16T14:36:49.586Z,1.30
2022-09-16T14:39:56.758Z,3.00
2022-09-16T14:43:05.248Z,2.05
2022-09-16T14:46:12.929Z,1.20
2022-09-16T14:49:18.406Z,1.17
2022-09-16T14:52:25.038Z,1.30
2022-09-16T14:55:31.999Z,1.27
2022-09-16T14:58:37.667Z,1.10
2022-09-16T15:01:43.622Z,0.90
2022-09-16T15:04:52.218Z,0.70
2022-09-16T15:08:13.850Z,1.15
2022-09-16T15:11:45.950Z,1.50
2022-09-16T15:14:45.734Z,1.05
2022-09-16T15:17:58.614Z,1.63
2022-09-16T15:21:08.635Z,1.30
2022-09-16T15:24:21.592Z,1.08
2022-09-16T15:27:29.018Z,1.13
2022-09-16T15:30:33.696Z,1.23
2022-09-16T15:33:42.946Z,1.38
2022-09-16T15:36:48.961Z,1.48
2022-09-16T15:39:53.128Z,1.30
2022-09-16T15:43:17.958Z,1.30
2022-09-16T15:46:24.010Z,2.10
2022-09-16T15:49:32.548Z,1.50
2022-09-16T15:52:55.498Z,1.50
2022-09-16T15:56:04.513Z,1.48
2022-09-16T15:59:24.260Z,1.30
2022-09-16T16:02:34.979Z,1.20
2022-09-16T16:05:52.323Z,1.50
2022-09-16T16:08:58.168Z,1.60
2022-09-16T16:12:05.260Z,1.50
2022-09-16T16:15:10.112Z,1.95
2022-09-16T16:18:15.827Z,1.40
2022-09-16T16:21:21.701Z,1.30
2022-09-16T16:24:26.028Z,1.90
2022-09-16T16:27:30.058Z,1.40
2022-09-16T16:30:35.123Z,1.70
2022-09-16T16:33:43.885Z,1.60
2022-09-16T16:36:50.166Z,1.52
2022-09-16T16:39:54.659Z,2.60
2022-09-16T16:42:58.863Z,2.00
2022-09-16T16:46:03.392Z,1.38
2022-09-16T16:49:07.558Z,1.65
2022-09-16T16:52:15.610Z,1.50
2022-09-16T16:55:19.927Z,1.80
2022-09-16T16:58:24.588Z,1.73
2022-09-16T17:01:31.179Z,1.70
2022-09-16T17:04:35.289Z,1.70
2022-09-16T17:07:41.015Z,2.40
2022-09-16T17:10:46.812Z,1.48
2022-09-16T17:13:53.219Z,1.70
2022-09-16T17:16:58.403Z,1.48
2022-09-16T17:20:03.059Z,1.48
2022-09-16T17:23:08.643Z,1.35
2022-09-16T17:26:13.926Z,1.20
2022-09-16T17:29:18.274Z,1.20
2022-09-16T17:32:22.403Z,1.30
2022-09-16T17:35:26.938Z,1.05
2022-09-16T17:38:32.673Z,1.20
2022-09-16T17:41:37.093Z,1.25
2022-09-16T17:44:41.338Z,1.25
2022-09-16T17:47:46.437Z,1.10
2022-09-16T17:50:52.255Z,1.50
2022-09-16T17:53:57.839Z,1.75
2022-09-16T17:57:02.031Z,1.60
2022-09-16T18:00:08.034Z,1.80
2022-09-16T18:03:16.455Z,1.25
2022-09-16T18:06:25.061Z,2.13
2022-09-16T18:09:31.797Z,2.30
2022-09-16T18:12:36.027Z,2.33
2022-09-16T18:15:40.416Z,1.50
2022-09-16T18:18:45.597Z,1.70
2022-09-16T18:21:49.879Z,1.40
2022-09-16T18:24:55.391Z,1.38
2022-09-16T18:27:59.733Z,1.30
2022-09-16T18:31:05.306Z,1.08
2022-09-16T18:34:12.218Z,1.10
2022-09-16T18:37:16.548Z,1.42
2022-09-16T18:40:22.131Z,1.20
2022-09-16T18:43:26.585Z,1.23
2022-09-16T18:46:32.742Z,1.40
2022-09-16T18:49:36.989Z,1.30
2022-09-16T18:52:41.186Z,1.30
2022-09-16T18:55:46.762Z,1.35
2022-09-16T18:59:17.205Z,1.23
2022-09-16T19:02:16.275Z,0.90
2022-09-16T19:05:20.609Z,1.20
2022-09-16T19:08:24.739Z,1.20
2022-09-16T19:11:30.679Z,1.30
2022-09-16T19:14:35.619Z,1.10
2022-09-16T19:17:39.845Z,1.17
2022-09-16T19:20:45.453Z,1.30
2022-09-16T19:23:54.893Z,1.27
2022-09-16T19:27:00.483Z,0.95
2022-09-16T19:30:04.882Z,1.10
2022-09-16T19:33:13.149Z,1.00
2022-09-16T19:36:19.374Z,1.02
2022-09-16T19:39:23.993Z,0.80
2022-09-16T19:42:29.530Z,3.15
2022-09-16T19:45:34.778Z,1.42
2022-09-16T19:48:41.316Z,1.05
2022-09-16T19:51:45.874Z,0.80
2022-09-16T19:54:50.669Z,0.90
2022-09-16T19:57:56.087Z,1.00
2022-09-16T20:01:01.294Z,1.30
2022-09-16T20:04:09.098Z,1.10
2022-09-16T20:07:17.051Z,1.10
2022-09-16T20:10:22.549Z,0.90
2022-09-16T20:13:28.273Z,0.80
2022-09-16T20:16:36.621Z,0.93
2022-09-16T20:19:40.958Z,0.90
2022-09-16T20:22:44.951Z,0.90
2022-09-16T20:25:57.361Z,0.90
2022-09-16T20:29:03.649Z,0.90
2022-09-16T20:32:07.786Z,0.80
2022-09-16T20:35:12.554Z,0.90
2022-09-16T20:38:16.721Z,0.80
2022-09-16T20:41:24.456Z,0.80
2022-09-16T20:44:30.183Z,0.85
2022-09-16T20:47:34.179Z,0.90
2022-09-16T20:50:39.306Z,1.17
2022-09-16T20:53:44.398Z,0.90
2022-09-16T20:56:49.622Z,1.00
2022-09-16T20:59:55.081Z,0.70
2022-09-16T21:03:00.873Z,0.75
2022-09-16T21:06:07.335Z,1.00
2022-09-16T21:09:15.165Z,0.80
2022-09-16T21:12:19.338Z,1.00
2022-09-16T21:15:24.833Z,0.68
2022-09-16T21:18:30.504Z,0.80
2022-09-16T21:21:34.599Z,0.73
2022-09-16T21:24:38.917Z,0.70
2022-09-16T21:27:43.088Z,0.63
2022-09-16T21:30:49.275Z,0.80
2022-09-16T21:33:53.532Z,0.80
2022-09-16T21:36:59.307Z,0.70
2022-09-16T21:40:04.268Z,0.70
2022-09-16T21:43:08.769Z,0.70
2022-09-16T21:46:16.273Z,0.90
2022-09-16T21:49:25.267Z,0.80
2022-09-16T21:52:29.468Z,0.80
2022-09-16T21:55:33.619Z,0.80
2022-09-16T21:58:37.774Z,0.80
2022-09-16T22:01:43.449Z,0.80
2022-09-16T22:04:47.754Z,0.77
2022-09-16T22:07:51.886Z,0.80
2022-09-16T22:11:02.190Z,0.80
2022-09-16T22:14:06.476Z,0.90
2022-09-16T22:17:13.114Z,0.65
2022-09-16T22:20:17.591Z,0.80
2022-09-16T22:23:22.792Z,0.60
2022-09-16T22:26:28.547Z,0.77
2022-09-16T22:29:32.817Z,0.70
2022-09-16T22:32:41.086Z,0.70
2022-09-16T22:35:45.582Z,0.82
2022-09-16T22:38:51.094Z,0.70
2022-09-16T22:41:55.495Z,0.82
2022-09-16T22:44:59.790Z,0.73
2022-09-16T22:48:06.258Z,0.75
2022-09-16T22:51:13.239Z,0.70
2022-09-16T22:54:18.194Z,0.70
2022-09-16T22:57:22.347Z,0.70
2022-09-16T23:00:26.445Z,1.42
2022-09-16T23:03:32.387Z,0.80
2022-09-16T23:06:38.389Z,0.70
2022-09-16T23:09:42.589Z,0.80
2022-09-16T23:12:46.731Z,0.60
2022-09-16T23:15:53.684Z,0.60
2022-09-16T23:19:02.715Z,0.70
2022-09-16T23:22:07.269Z,0.60
2022-09-16T23:25:13.572Z,0.60
2022-09-16T23:28:17.731Z,0.80
2022-09-16T23:31:24.679Z,1.02
2022-09-16T23:34:30.808Z,0.70
2022-09-16T23:37:35.026Z,0.77
2022-09-16T23:40:40.932Z,0.60
2022-09-16T23:43:45.489Z,0.70
2022-09-16T23:46:49.832Z,0.70
2022-09-16T23:49:55.497Z,0.73
2022-09-16T23:52:59.928Z,0.80
2022-09-16T23:56:06.639Z,0.65
2022-09-16T23:59:11.944Z,0.90
